createdAt,value
2017-01-27T00:01:03.692Z,1010.44
2017-01-27T00:02:17.155Z,1010.46
2017-01-27T00:03:31.492Z,1010.43
2017-01-27T00:04:45.163Z,1010.45
2017-01-27T00:05:59.736Z,1010.41
2017-01-27T00:07:13.190Z,1010.41
2017-01-27T00:08:26.709Z,1010.33
2017-01-27T00:09:40.625Z,1010.36
2017-01-27T00:10:54.399Z,1010.34
2017-01-27T00:12:08.179Z,1010.34
2017-01-27T00:13:21.624Z,1010.41
2017-01-27T00:14:35.127Z,1010.43
2017-01-27T00:15:49.025Z,1010.43
2017-01-27T00:17:02.509Z,1010.36
2017-01-27T00:18:16.713Z,1010.31
2017-01-27T00:19:30.232Z,1010.3
2017-01-27T00:20:44.040Z,1010.28
2017-01-27T00:21:57.958Z,1010.29
2017-01-27T00:23:11.442Z,1010.28
2017-01-27T00:24:25.818Z,1010.28
2017-01-27T00:25:39.700Z,1010.3
2017-01-27T00:26:53.693Z,1010.32
2017-01-27T00:28:07.209Z,1010.28
2017-01-27T00:29:20.732Z,1010.32
2017-01-27T00:30:34.528Z,1010.35
2017-01-27T00:31:47.969Z,1010.3
2017-01-27T00:33:01.816Z,1010.37
2017-01-27T00:34:15.722Z,1010.42
2017-01-27T00:35:32.188Z,1010.4
2017-01-27T00:36:46.104Z,1010.44
2017-01-27T00:37:59.959Z,1010.45
2017-01-27T00:39:13.397Z,1010.42
2017-01-27T00:40:27.406Z,1010.45
2017-01-27T00:41:40.832Z,1010.48
2017-01-27T00:42:54.574Z,1010.43
2017-01-27T00:44:08.095Z,1010.44
2017-01-27T00:45:21.573Z,1010.48
2017-01-27T00:46:35.517Z,1010.44
2017-01-27T00:47:48.978Z,1010.44
2017-01-27T00:49:04.864Z,1010.43
2017-01-27T00:50:18.400Z,1010.37
2017-01-27T00:51:32.340Z,1010.32
2017-01-27T00:52:46.176Z,1010.26
2017-01-27T00:54:00.061Z,1010.2
2017-01-27T00:55:13.775Z,1010.18
2017-01-27T00:56:27.336Z,1010.17
2017-01-27T00:57:40.814Z,1010.2
2017-01-27T00:58:54.280Z,1010.24
2017-01-27T01:00:08.255Z,1010.24
2017-01-27T01:01:21.996Z,1010.13
2017-01-27T01:02:35.935Z,1010.21
2017-01-27T01:03:50.320Z,1010.19
2017-01-27T01:05:03.781Z,1010.25
2017-01-27T01:06:17.652Z,1010.23
2017-01-27T01:07:31.465Z,1010.21
2017-01-27T01:08:45.327Z,1010.21
2017-01-27T01:09:59.221Z,1010.15
2017-01-27T01:11:13.293Z,1010.12
2017-01-27T01:12:26.857Z,1010.1
2017-01-27T01:13:40.986Z,1010.12
2017-01-27T01:14:54.501Z,1010.23
2017-01-27T01:16:07.966Z,1010.27
2017-01-27T01:17:21.595Z,1010.31
2017-01-27T01:18:50.383Z,1010.25
2017-01-27T01:20:04.120Z,1010.24
2017-01-27T01:21:18.005Z,1010.24
2017-01-27T01:22:32.292Z,1010.22
2017-01-27T01:23:45.889Z,1010.16
2017-01-27T01:24:59.388Z,1010.15
2017-01-27T01:26:13.133Z,1010.19
2017-01-27T01:27:26.620Z,1010.16
2017-01-27T01:28:40.458Z,1010.2
2017-01-27T01:29:54.079Z,1010.2
2017-01-27T01:31:07.504Z,1010.28
2017-01-27T01:32:21.355Z,1010.22
2017-01-27T01:33:34.932Z,1010.29
2017-01-27T01:34:48.495Z,1010.25
2017-01-27T01:36:02.119Z,1010.24
2017-01-27T01:37:15.615Z,1010.24
2017-01-27T01:38:29.469Z,1010.19
2017-01-27T01:39:43.141Z,1010.13
2017-01-27T01:40:57.509Z,1010.08
2017-01-27T01:42:11.110Z,1010.14
2017-01-27T01:43:24.618Z,1010.18
2017-01-27T01:44:39.751Z,1010.21
2017-01-27T01:45:53.714Z,1010.2
2017-01-27T01:47:07.792Z,1010.25
2017-01-27T01:48:21.281Z,1010.18
2017-01-27T01:49:34.806Z,1010.14
2017-01-27T01:50:48.724Z,1010.13
2017-01-27T01:52:02.270Z,1010.11
2017-01-27T01:53:15.923Z,1010.16
2017-01-27T01:54:29.573Z,1010.13
2017-01-27T01:55:43.176Z,1010.12
2017-01-27T01:56:57.073Z,1010.15
2017-01-27T01:58:11.044Z,1010.19
2017-01-27T01:59:24.655Z,1010.21
2017-01-27T02:00:38.317Z,1010.24
2017-01-27T02:01:52.040Z,1010.23
2017-01-27T02:03:06.393Z,1010.19
2017-01-27T02:04:20.040Z,1010.18
2017-01-27T02:05:36.111Z,1010.1
2017-01-27T02:06:49.587Z,1010.13
2017-01-27T02:08:03.317Z,1010.16
2017-01-27T02:09:17.582Z,1010.12
2017-01-27T02:10:31.618Z,1010.1
2017-01-27T02:11:45.857Z,1010.09
2017-01-27T02:12:59.904Z,1010.1
2017-01-27T02:14:13.676Z,1010.05
2017-01-27T02:15:27.632Z,1010.03
2017-01-27T02:16:41.588Z,1010.02
2017-01-27T02:17:55.869Z,1009.98
2017-01-27T02:19:09.759Z,1009.94
2017-01-27T02:20:23.386Z,1009.88
2017-01-27T02:21:38.346Z,1009.88
2017-01-27T02:22:51.870Z,1009.88
2017-01-27T02:24:06.237Z,1009.86
2017-01-27T02:25:19.714Z,1009.86
2017-01-27T02:26:33.165Z,1009.8
2017-01-27T02:27:46.973Z,1009.79
2017-01-27T02:29:00.836Z,1009.83
2017-01-27T02:30:15.393Z,1009.8
2017-01-27T02:31:29.021Z,1009.86
2017-01-27T02:32:42.653Z,1009.87
2017-01-27T02:33:56.389Z,1009.91
2017-01-27T02:35:10.228Z,1009.88
2017-01-27T02:36:23.704Z,1009.84
2017-01-27T02:37:37.756Z,1009.87
2017-01-27T02:38:51.276Z,1009.92
2017-01-27T02:40:05.386Z,1009.89
2017-01-27T02:41:18.851Z,1009.94
2017-01-27T02:42:33.099Z,1009.92
2017-01-27T02:43:49.016Z,1009.97
2017-01-27T02:45:02.601Z,1009.94
2017-01-27T02:46:16.965Z,1010
2017-01-27T02:47:30.463Z,1009.98
2017-01-27T02:48:43.956Z,1009.98
2017-01-27T02:49:57.540Z,1009.97
2017-01-27T02:51:10.945Z,1009.98
2017-01-27T02:52:24.671Z,1010
2017-01-27T02:53:38.185Z,1010.04
2017-01-27T02:54:51.793Z,1010.05
2017-01-27T02:56:05.301Z,1010.15
2017-01-27T02:57:18.747Z,1010.08
2017-01-27T02:58:33.526Z,1010.02
2017-01-27T02:59:47.511Z,1010
2017-01-27T03:01:00.969Z,1009.98
2017-01-27T03:02:14.605Z,1009.89
2017-01-27T03:03:28.077Z,1009.96
2017-01-27T03:04:41.880Z,1009.97
2017-01-27T03:05:55.299Z,1009.94
2017-01-27T03:07:08.900Z,1009.85
2017-01-27T03:08:22.721Z,1009.84
2017-01-27T03:09:36.397Z,1009.84
2017-01-27T03:10:50.139Z,1009.94
2017-01-27T03:12:03.966Z,1009.93
2017-01-27T03:13:18.215Z,1009.92
2017-01-27T03:14:31.638Z,1009.97
2017-01-27T03:15:45.603Z,1010.03
2017-01-27T03:16:59.383Z,1009.88
2017-01-27T03:18:13.066Z,1009.86
2017-01-27T03:19:26.468Z,1009.88
2017-01-27T03:20:40.034Z,1009.91
2017-01-27T03:21:55.727Z,1009.98
2017-01-27T03:23:09.530Z,1009.93
2017-01-27T03:24:23.442Z,1009.98
2017-01-27T03:25:36.982Z,1010.01
2017-01-27T03:26:50.456Z,1009.91
2017-01-27T03:28:03.939Z,1009.98
2017-01-27T03:29:17.683Z,1009.95
2017-01-27T03:30:31.109Z,1009.93
2017-01-27T03:31:44.613Z,1009.84
2017-01-27T03:32:58.030Z,1009.88
2017-01-27T03:34:11.439Z,1009.86
2017-01-27T03:35:25.145Z,1009.87
2017-01-27T03:36:38.687Z,1009.89
2017-01-27T03:37:52.145Z,1009.87
2017-01-27T03:39:05.766Z,1009.89
2017-01-27T03:40:19.228Z,1009.79
2017-01-27T03:41:33.003Z,1009.86
2017-01-27T03:42:46.864Z,1009.89
2017-01-27T03:44:00.343Z,1009.94
2017-01-27T03:45:13.915Z,1009.96
2017-01-27T03:46:27.815Z,1010.03
2017-01-27T03:47:41.909Z,1010
2017-01-27T03:48:55.355Z,1010.02
2017-01-27T03:50:08.859Z,1009.98
2017-01-27T03:51:22.632Z,1009.94
2017-01-27T03:52:36.129Z,1009.88
2017-01-27T03:53:49.920Z,1009.86
2017-01-27T03:55:04.654Z,1009.87
2017-01-27T03:56:18.218Z,1009.93
2017-01-27T03:57:38.633Z,1009.97
2017-01-27T03:58:52.917Z,1010.08
2017-01-27T04:00:06.667Z,1010.13
2017-01-27T04:01:20.185Z,1010.21
2017-01-27T04:02:33.671Z,1010.15
2017-01-27T04:03:47.579Z,1010.05
2017-01-27T04:05:01.437Z,1010.1
2017-01-27T04:06:15.754Z,1010.07
2017-01-27T04:07:29.200Z,1010.05
2017-01-27T04:08:42.803Z,1010.01
2017-01-27T04:09:56.674Z,1009.98
2017-01-27T04:11:11.110Z,1010
2017-01-27T04:12:24.950Z,1010.05
2017-01-27T04:13:38.436Z,1010.03
2017-01-27T04:14:52.006Z,1010.05
2017-01-27T04:16:05.530Z,1010.07
2017-01-27T04:17:18.989Z,1010.06
2017-01-27T04:18:32.915Z,1010.03
2017-01-27T04:19:46.453Z,1010.12
2017-01-27T04:21:00.287Z,1010.21
2017-01-27T04:22:14.723Z,1010.27
2017-01-27T04:23:28.131Z,1010.24
2017-01-27T04:24:42.022Z,1010.18
2017-01-27T04:25:56.348Z,1010.26
2017-01-27T04:27:09.839Z,1010.27
2017-01-27T04:28:23.266Z,1010.29
2017-01-27T04:29:36.781Z,1010.27
2017-01-27T04:30:51.340Z,1010.22
2017-01-27T04:32:04.983Z,1010.16
2017-01-27T04:33:18.922Z,1010.23
2017-01-27T04:34:33.583Z,1010.24
2017-01-27T04:35:46.995Z,1010.26
2017-01-27T04:37:00.756Z,1010.16
2017-01-27T04:38:16.410Z,1010.14
2017-01-27T04:39:29.872Z,1010.14
2017-01-27T04:40:43.487Z,1010.19
2017-01-27T04:41:56.969Z,1010.13
2017-01-27T04:43:10.775Z,1010.09
2017-01-27T04:44:24.237Z,1010.14
2017-01-27T04:45:37.967Z,1010.11
2017-01-27T04:46:51.449Z,1010.09
2017-01-27T04:48:04.923Z,1010.06
2017-01-27T04:49:18.887Z,1010.1
2017-01-27T04:50:32.414Z,1010.05
2017-01-27T04:51:45.948Z,1010.1
2017-01-27T04:52:59.423Z,1010.17
2017-01-27T04:54:12.890Z,1010.06
2017-01-27T04:55:27.082Z,1010.13
2017-01-27T04:56:40.641Z,1010.12
2017-01-27T04:57:54.167Z,1010.13
2017-01-27T04:59:07.610Z,1010.13
2017-01-27T05:00:21.113Z,1010.1
2017-01-27T05:01:34.988Z,1010.07
2017-01-27T05:02:48.575Z,1010.06
2017-01-27T05:04:02.054Z,1010.05
2017-01-27T05:05:15.907Z,1010.07
2017-01-27T05:06:29.697Z,1010.11
2017-01-27T05:07:43.670Z,1010.12
2017-01-27T05:08:57.960Z,1010.07
2017-01-27T05:10:11.388Z,1010.08
2017-01-27T05:11:25.195Z,1010.09
2017-01-27T05:12:38.735Z,1010.1
2017-01-27T05:13:52.587Z,1010.03
2017-01-27T05:15:06.081Z,1009.99
2017-01-27T05:16:19.578Z,1010.01
2017-01-27T05:17:33.071Z,1010.03
2017-01-27T05:18:46.525Z,1010.02
2017-01-27T05:20:00.252Z,1010.05
2017-01-27T05:21:14.959Z,1010.03
2017-01-27T05:22:29.852Z,1009.98
2017-01-27T05:23:43.361Z,1009.96
2017-01-27T05:24:56.804Z,1009.97
2017-01-27T05:26:10.635Z,1010.03
2017-01-27T05:27:24.067Z,1010.06
2017-01-27T05:28:38.953Z,1010.13
2017-01-27T05:29:52.603Z,1010.22
2017-01-27T05:31:06.500Z,1010.21
2017-01-27T05:32:20.237Z,1010.13
2017-01-27T05:33:34.689Z,1010.11
2017-01-27T05:34:48.117Z,1010.19
2017-01-27T05:36:01.666Z,1010.18
2017-01-27T05:37:15.189Z,1010.17
2017-01-27T05:38:29.060Z,1010.15
2017-01-27T05:39:43.360Z,1010.24
2017-01-27T05:40:57.073Z,1010.33
2017-01-27T05:42:11.455Z,1010.31
2017-01-27T05:43:25.611Z,1010.3
2017-01-27T05:44:40.707Z,1010.35
2017-01-27T05:45:54.233Z,1010.39
2017-01-27T05:47:07.678Z,1010.55
2017-01-27T05:48:21.231Z,1010.58
2017-01-27T05:49:34.878Z,1010.5
2017-01-27T05:50:48.774Z,1010.38
2017-01-27T05:52:02.340Z,1010.36
2017-01-27T05:53:16.681Z,1010.35
2017-01-27T05:54:32.909Z,1010.36
2017-01-27T05:55:46.455Z,1010.34
2017-01-27T05:57:00.334Z,1010.36
2017-01-27T05:58:13.997Z,1010.37
2017-01-27T05:59:27.956Z,1010.31
2017-01-27T06:00:41.956Z,1010.28
2017-01-27T06:01:55.759Z,1010.29
2017-01-27T06:03:09.578Z,1010.27
2017-01-27T06:04:23.204Z,1010.19
2017-01-27T06:05:38.070Z,1010.17
2017-01-27T06:06:52.119Z,1010.22
2017-01-27T06:08:05.612Z,1010.21
2017-01-27T06:09:19.369Z,1010.17
2017-01-27T06:10:32.925Z,1010.15
2017-01-27T06:11:49.218Z,1010.19
2017-01-27T06:13:03.150Z,1010.24
2017-01-27T06:14:16.698Z,1010.25
2017-01-27T06:15:30.683Z,1010.2
2017-01-27T06:16:44.165Z,1010.24
2017-01-27T06:17:57.609Z,1010.25
2017-01-27T06:19:11.471Z,1010.28
2017-01-27T06:20:25.069Z,1010.22
2017-01-27T06:21:38.838Z,1010.21
2017-01-27T06:22:52.255Z,1010.15
2017-01-27T06:24:05.847Z,1010.21
2017-01-27T06:25:19.393Z,1010.21
2017-01-27T06:26:32.908Z,1010.24
2017-01-27T06:27:47.487Z,1010.17
2017-01-27T06:29:00.974Z,1010.25
2017-01-27T06:30:14.517Z,1010.29
2017-01-27T06:31:28.373Z,1010.31
2017-01-27T06:32:42.362Z,1010.26
2017-01-27T06:33:56.092Z,1010.29
2017-01-27T06:35:09.941Z,1010.32
2017-01-27T06:36:23.913Z,1010.33
2017-01-27T06:37:38.095Z,1010.28
2017-01-27T06:38:52.145Z,1010.29
2017-01-27T06:40:05.933Z,1010.3
2017-01-27T06:41:19.398Z,1010.29
2017-01-27T06:42:33.263Z,1010.24
2017-01-27T06:43:46.723Z,1010.27
2017-01-27T06:45:00.265Z,1010.21
2017-01-27T06:46:14.373Z,1010.25
2017-01-27T06:47:27.851Z,1010.26
2017-01-27T06:48:41.302Z,1010.3
2017-01-27T06:49:54.809Z,1010.27
2017-01-27T06:51:08.280Z,1010.26
2017-01-27T06:52:22.282Z,1010.15
2017-01-27T06:53:35.700Z,1010.17
2017-01-27T06:54:49.119Z,1010.24
2017-01-27T06:56:02.953Z,1010.25
2017-01-27T06:57:16.408Z,1010.31
2017-01-27T06:58:30.185Z,1010.29
2017-01-27T06:59:43.736Z,1010.24
2017-01-27T07:01:09.916Z,1010.27
2017-01-27T07:02:23.383Z,1010.28
2017-01-27T07:03:56.043Z,1010.34
2017-01-27T07:05:09.487Z,1010.26
2017-01-27T07:06:22.917Z,1010.28
2017-01-27T07:07:36.386Z,1010.31
2017-01-27T07:08:49.804Z,1010.29
2017-01-27T07:10:03.523Z,1010.3
2017-01-27T07:11:19.138Z,1010.41
2017-01-27T07:12:32.570Z,1010.43
2017-01-27T07:13:46.430Z,1010.44
2017-01-27T07:14:59.856Z,1010.41
2017-01-27T07:16:13.599Z,1010.49
2017-01-27T07:17:27.026Z,1010.52
2017-01-27T07:18:51.637Z,1010.52
2017-01-27T07:20:05.122Z,1010.58
2017-01-27T07:21:18.533Z,1010.54
2017-01-27T07:22:32.243Z,1010.56
2017-01-27T07:23:45.722Z,1010.61
2017-01-27T07:24:59.755Z,1010.52
2017-01-27T07:26:13.229Z,1010.54
2017-01-27T07:27:26.835Z,1010.49
2017-01-27T07:28:40.648Z,1010.5
2017-01-27T07:29:54.067Z,1010.53
2017-01-27T07:31:07.613Z,1010.55
2017-01-27T07:32:21.509Z,1010.63
2017-01-27T07:33:36.432Z,1010.66
2017-01-27T07:34:50.717Z,1010.69
2017-01-27T07:36:04.680Z,1010.65
2017-01-27T07:37:18.176Z,1010.73
2017-01-27T07:38:32.249Z,1010.79
2017-01-27T07:39:45.919Z,1010.81
2017-01-27T07:40:59.659Z,1010.85
2017-01-27T07:42:13.723Z,1010.85
2017-01-27T07:43:27.312Z,1010.9
2017-01-27T07:44:40.925Z,1010.9
2017-01-27T07:45:54.516Z,1010.85
2017-01-27T07:47:08.766Z,1010.79
2017-01-27T07:48:22.651Z,1010.83
2017-01-27T07:49:37.428Z,1010.88
2017-01-27T07:50:51.396Z,1010.91
2017-01-27T07:52:05.649Z,1010.89
2017-01-27T07:53:19.897Z,1010.88
2017-01-27T07:54:33.521Z,1010.97
2017-01-27T07:55:48.499Z,1011.06
2017-01-27T07:57:02.453Z,1011.1
2017-01-27T07:58:17.238Z,1011.09
2017-01-27T07:59:31.224Z,1011.09
2017-01-27T08:00:45.711Z,1011.02
2017-01-27T08:01:59.726Z,1011.06
2017-01-27T08:03:14.208Z,1011.15
2017-01-27T08:04:27.891Z,1011.16
2017-01-27T08:05:41.957Z,1011.23
2017-01-27T08:06:55.665Z,1011.21
2017-01-27T08:08:09.760Z,1011.18
2017-01-27T08:09:23.238Z,1011.14
2017-01-27T08:10:36.929Z,1011.09
2017-01-27T08:11:50.776Z,1011.07
2017-01-27T08:13:04.763Z,1011.08
2017-01-27T08:14:18.273Z,1011
2017-01-27T08:15:32.230Z,1011.06
2017-01-27T08:16:47.532Z,1011.12
2017-01-27T08:18:01.911Z,1011.11
2017-01-27T08:19:16.133Z,1011.13
2017-01-27T08:20:29.741Z,1011.1
2017-01-27T08:21:43.656Z,1011.11
2017-01-27T08:22:57.148Z,1011.14
2017-01-27T08:24:11.849Z,1011.11
2017-01-27T08:25:26.066Z,1011.07
2017-01-27T08:26:39.673Z,1011.08
2017-01-27T08:27:55.408Z,1011.08
2017-01-27T08:29:09.326Z,1011.1
2017-01-27T08:30:23.198Z,1011.12
2017-01-27T08:31:40.578Z,1011.11
2017-01-27T08:32:54.427Z,1011.16
2017-01-27T08:34:08.122Z,1011.22
2017-01-27T08:35:22.349Z,1011.2
2017-01-27T08:36:37.381Z,1011.18
2017-01-27T08:37:50.842Z,1011.17
2017-01-27T08:39:04.872Z,1011.13
2017-01-27T08:40:18.567Z,1011.15
2017-01-27T08:41:32.436Z,1011.12
2017-01-27T08:42:46.276Z,1011.2
2017-01-27T08:43:59.773Z,1011.18
2017-01-27T08:45:13.393Z,1011.26
2017-01-27T08:46:26.916Z,1011.24
2017-01-27T08:47:42.121Z,1011.22
2017-01-27T08:48:55.904Z,1011.24
2017-01-27T08:50:09.771Z,1011.19
2017-01-27T08:51:23.277Z,1011.23
2017-01-27T08:52:36.832Z,1011.3
2017-01-27T08:53:50.317Z,1011.31
2017-01-27T08:55:04.190Z,1011.31
2017-01-27T08:56:18.075Z,1011.35
2017-01-27T08:57:31.532Z,1011.34
2017-01-27T08:58:46.262Z,1011.35
2017-01-27T09:00:00.129Z,1011.37
2017-01-27T09:01:13.891Z,1011.34
2017-01-27T09:02:27.771Z,1011.41
2017-01-27T09:03:41.837Z,1011.37
2017-01-27T09:04:55.304Z,1011.39
2017-01-27T09:06:09.280Z,1011.4
2017-01-27T09:07:23.413Z,1011.39
2017-01-27T09:08:36.989Z,1011.45
2017-01-27T09:09:50.684Z,1011.47
2017-01-27T09:11:04.680Z,1011.4
2017-01-27T09:12:18.780Z,1011.4
2017-01-27T09:13:33.041Z,1011.43
2017-01-27T09:14:47.076Z,1011.45
2017-01-27T09:16:00.650Z,1011.52
2017-01-27T09:17:14.242Z,1011.52
2017-01-27T09:18:28.186Z,1011.55
2017-01-27T09:19:42.235Z,1011.45
2017-01-27T09:20:55.826Z,1011.43
2017-01-27T09:22:09.391Z,1011.5
2017-01-27T09:23:22.979Z,1011.48
2017-01-27T09:24:36.537Z,1011.52
2017-01-27T09:25:50.358Z,1011.59
2017-01-27T09:27:04.574Z,1011.61
2017-01-27T09:28:18.809Z,1011.65
2017-01-27T09:29:32.409Z,1011.66
2017-01-27T09:30:46.371Z,1011.67
2017-01-27T09:32:00.140Z,1011.67
2017-01-27T09:33:13.603Z,1011.64
2017-01-27T09:34:27.103Z,1011.68
2017-01-27T09:35:40.730Z,1011.68
2017-01-27T09:36:54.235Z,1011.69
2017-01-27T09:38:08.041Z,1011.71
2017-01-27T09:39:21.570Z,1011.72
2017-01-27T09:40:35.142Z,1011.71
2017-01-27T09:41:48.685Z,1011.77
2017-01-27T09:43:03.025Z,1011.76
2017-01-27T09:44:19.562Z,1011.73
2017-01-27T09:45:33.540Z,1011.8
2017-01-27T09:46:47.094Z,1011.81
2017-01-27T09:48:01.340Z,1011.84
2017-01-27T09:49:15.226Z,1011.83
2017-01-27T09:50:29.397Z,1011.83
2017-01-27T09:51:42.915Z,1011.82
2017-01-27T09:52:56.367Z,1011.83
2017-01-27T09:54:10.220Z,1011.83
2017-01-27T09:55:23.692Z,1011.78
2017-01-27T09:56:37.493Z,1011.79
2017-01-27T09:57:50.985Z,1011.69
2017-01-27T09:59:04.456Z,1011.68
2017-01-27T10:00:18.322Z,1011.66
2017-01-27T10:01:31.787Z,1011.64
2017-01-27T10:02:46.007Z,1011.62
2017-01-27T10:03:59.535Z,1011.65
2017-01-27T10:05:13.148Z,1011.65
2017-01-27T10:06:27.032Z,1011.68
2017-01-27T10:07:41.576Z,1011.8
2017-01-27T10:08:55.558Z,1011.89
2017-01-27T10:10:09.099Z,1011.9
2017-01-27T10:11:25.619Z,1011.93
2017-01-27T10:12:39.160Z,1011.9
2017-01-27T10:13:52.668Z,1011.85
2017-01-27T10:15:07.205Z,1011.82
2017-01-27T10:16:20.674Z,1011.8
2017-01-27T10:17:34.212Z,1011.72
2017-01-27T10:18:47.624Z,1011.73
2017-01-27T10:20:01.091Z,1011.79
2017-01-27T10:21:15.740Z,1011.81
2017-01-27T10:22:29.309Z,1011.72
2017-01-27T10:23:42.923Z,1011.77
2017-01-27T10:24:56.421Z,1011.75
2017-01-27T10:26:09.893Z,1011.73
2017-01-27T10:27:24.045Z,1011.72
2017-01-27T10:28:37.594Z,1011.65
2017-01-27T10:29:51.470Z,1011.67
2017-01-27T10:31:04.905Z,1011.64
2017-01-27T10:32:18.332Z,1011.6
2017-01-27T10:33:32.175Z,1011.67
2017-01-27T10:34:46.551Z,1011.69
2017-01-27T10:36:00.015Z,1011.69
2017-01-27T10:37:13.608Z,1011.73
2017-01-27T10:38:27.154Z,1011.69
2017-01-27T10:39:41.272Z,1011.71
2017-01-27T10:40:54.720Z,1011.72
2017-01-27T10:42:08.193Z,1011.71
2017-01-27T10:43:21.642Z,1011.67
2017-01-27T10:44:36.003Z,1011.68
2017-01-27T10:45:50.204Z,1011.69
2017-01-27T10:47:03.681Z,1011.65
2017-01-27T10:48:23.417Z,1011.57
2017-01-27T10:49:37.427Z,1011.56
2017-01-27T10:50:50.939Z,1011.56
2017-01-27T10:52:05.074Z,1011.53
2017-01-27T10:53:18.504Z,1011.56
2017-01-27T10:54:31.997Z,1011.57
2017-01-27T10:55:45.475Z,1011.54
2017-01-27T10:56:58.981Z,1011.55
2017-01-27T10:58:13.196Z,1011.53
2017-01-27T10:59:26.720Z,1011.53
2017-01-27T11:00:42.356Z,1011.43
2017-01-27T11:01:55.827Z,1011.39
2017-01-27T11:03:09.325Z,1011.3
2017-01-27T11:04:23.171Z,1011.3
2017-01-27T11:05:37.996Z,1011.25
2017-01-27T11:06:51.583Z,1011.28
2017-01-27T11:08:05.131Z,1011.21
2017-01-27T11:09:19.142Z,1011.23
2017-01-27T11:10:32.933Z,1011.24
2017-01-27T11:11:46.395Z,1011.22
2017-01-27T11:13:00.404Z,1011.26
2017-01-27T11:14:14.317Z,1011.26
2017-01-27T11:15:29.051Z,1011.18
2017-01-27T11:16:43.050Z,1011.2
2017-01-27T11:17:57.335Z,1011.19
2017-01-27T11:19:10.800Z,1011.16
2017-01-27T11:20:24.242Z,1011.18
2017-01-27T11:21:38.148Z,1011.15
2017-01-27T11:22:51.915Z,1011.14
2017-01-27T11:24:05.850Z,1011.15
2017-01-27T11:25:19.308Z,1011.05
2017-01-27T11:26:33.239Z,1011.09
2017-01-27T11:27:46.783Z,1011.07
2017-01-27T11:29:00.520Z,1011.03
2017-01-27T11:30:14.421Z,1011.01
2017-01-27T11:31:28.011Z,1011.07
2017-01-27T11:32:41.479Z,1011.03
2017-01-27T11:33:54.934Z,1011.02
2017-01-27T11:35:27.900Z,1011.02
2017-01-27T11:36:41.863Z,1011
2017-01-27T11:37:55.328Z,1011.07
2017-01-27T11:39:09.221Z,1011.01
2017-01-27T11:40:22.990Z,1011.01
2017-01-27T11:41:36.552Z,1010.98
2017-01-27T11:42:50.188Z,1010.98
2017-01-27T11:44:04.119Z,1010.98
2017-01-27T11:45:18.027Z,1010.99
2017-01-27T11:46:31.467Z,1011.01
2017-01-27T11:49:30.720Z,1011
2017-01-27T11:50:44.664Z,1010.97
2017-01-27T11:51:58.743Z,1010.92
2017-01-27T11:53:12.360Z,1010.89
2017-01-27T11:54:25.837Z,1010.89
2017-01-27T11:55:39.278Z,1010.91
2017-01-27T11:56:52.757Z,1010.89
2017-01-27T11:58:06.771Z,1010.9
2017-01-27T11:59:20.717Z,1010.92
2017-01-27T12:00:34.472Z,1010.91
2017-01-27T12:01:47.952Z,1010.83
2017-01-27T12:03:01.560Z,1010.89
2017-01-27T12:04:15.744Z,1010.84
2017-01-27T12:05:29.265Z,1010.93
2017-01-27T12:06:43.271Z,1010.91
2017-01-27T12:07:58.279Z,1010.91
2017-01-27T12:09:12.615Z,1010.91
2017-01-27T12:10:26.629Z,1010.91
2017-01-27T12:11:40.296Z,1010.9
2017-01-27T12:12:53.917Z,1010.8
2017-01-27T12:14:08.198Z,1010.75
2017-01-27T12:15:22.629Z,1010.77
2017-01-27T12:16:36.522Z,1010.7
2017-01-27T12:17:52.545Z,1010.76
2017-01-27T12:19:06.363Z,1010.76
2017-01-27T12:20:20.746Z,1010.68
2017-01-27T12:21:34.278Z,1010.68
2017-01-27T12:22:48.005Z,1010.63
2017-01-27T12:24:02.002Z,1010.66
2017-01-27T12:25:16.122Z,1010.7
2017-01-27T12:26:29.592Z,1010.73
2017-01-27T12:27:43.087Z,1010.65
2017-01-27T12:30:26.064Z,1010.5
2017-01-27T12:31:39.648Z,1010.46
2017-01-27T12:32:53.123Z,1010.5
2017-01-27T12:34:07.479Z,1010.57
2017-01-27T12:35:21.346Z,1010.54
2017-01-27T12:36:34.785Z,1010.56
2017-01-27T12:37:48.410Z,1010.54
2017-01-27T12:39:02.358Z,1010.54
2017-01-27T12:40:16.341Z,1010.47
2017-01-27T12:41:30.543Z,1010.46
2017-01-27T12:42:44.201Z,1010.46
2017-01-27T12:43:57.659Z,1010.44
2017-01-27T12:45:11.754Z,1010.41
2017-01-27T12:46:26.098Z,1010.39
2017-01-27T12:47:39.868Z,1010.35
2017-01-27T12:48:53.363Z,1010.33
2017-01-27T12:50:06.909Z,1010.29
2017-01-27T12:51:20.438Z,1010.26
2017-01-27T12:52:34.025Z,1010.3
2017-01-27T12:53:47.848Z,1010.27
2017-01-27T12:55:01.296Z,1010.26
2017-01-27T12:56:15.682Z,1010.25
2017-01-27T12:57:29.576Z,1010.28
2017-01-27T12:58:43.028Z,1010.22
2017-01-27T12:59:57.217Z,1010.19
2017-01-27T13:01:10.725Z,1010.2
2017-01-27T13:02:24.324Z,1010.19
2017-01-27T13:03:37.989Z,1010.19
2017-01-27T13:04:51.479Z,1010.14
2017-01-27T13:06:06.220Z,1010.16
2017-01-27T13:07:19.803Z,1010.17
2017-01-27T13:08:33.781Z,1010.13
2017-01-27T13:09:47.441Z,1010.1
2017-01-27T13:11:00.986Z,1010.11
2017-01-27T13:12:14.976Z,1010.09
2017-01-27T13:13:28.657Z,1010.11
2017-01-27T13:14:44.440Z,1010.12
2017-01-27T13:15:57.982Z,1010.11
2017-01-27T13:17:11.563Z,1010.05
2017-01-27T13:18:26.202Z,1010.04
2017-01-27T13:19:39.684Z,1010.01
2017-01-27T13:20:53.137Z,1010
2017-01-27T13:23:35.709Z,1010.03
2017-01-27T13:24:49.630Z,1010.04
2017-01-27T13:26:03.436Z,1010.02
2017-01-27T13:27:17.121Z,1009.98
2017-01-27T13:28:31.899Z,1009.98
2017-01-27T13:29:45.739Z,1009.98
2017-01-27T13:30:59.323Z,1009.98
2017-01-27T13:32:13.498Z,1009.97
2017-01-27T13:33:27.989Z,1010.02
2017-01-27T13:34:44.236Z,1009.99
2017-01-27T13:35:58.088Z,1009.92
2017-01-27T13:37:12.489Z,1009.9
2017-01-27T13:38:27.278Z,1009.86
2017-01-27T13:39:41.896Z,1009.9
2017-01-27T13:40:55.820Z,1009.94
2017-01-27T13:42:09.728Z,1009.94
2017-01-27T13:43:23.706Z,1009.95
2017-01-27T13:44:37.739Z,1009.87
2017-01-27T13:45:51.280Z,1009.88
2017-01-27T13:47:04.821Z,1009.88
2017-01-27T13:48:18.636Z,1009.84
2017-01-27T13:49:32.158Z,1009.85
2017-01-27T13:50:46.567Z,1009.82
2017-01-27T13:52:00.494Z,1009.78
2017-01-27T13:53:13.994Z,1009.77
2017-01-27T13:54:27.902Z,1009.75
2017-01-27T13:55:41.837Z,1009.72
2017-01-27T13:56:55.352Z,1009.79
2017-01-27T13:58:09.249Z,1009.79
2017-01-27T13:59:23.242Z,1009.8
2017-01-27T14:00:37.155Z,1009.82
2017-01-27T14:01:50.664Z,1009.79
2017-01-27T14:03:04.745Z,1009.76
2017-01-27T14:04:18.512Z,1009.72
2017-01-27T14:05:33.664Z,1009.74
2017-01-27T14:06:47.908Z,1009.76
2017-01-27T14:08:01.379Z,1009.68
2017-01-27T14:09:15.028Z,1009.75
2017-01-27T14:10:28.661Z,1009.74
2017-01-27T14:11:42.897Z,1009.74
2017-01-27T14:12:57.124Z,1009.72
2017-01-27T14:14:10.612Z,1009.74
2017-01-27T14:15:25.475Z,1009.73
2017-01-27T14:16:39.130Z,1009.72
2017-01-27T14:17:52.815Z,1009.73
2017-01-27T14:19:07.646Z,1009.73
2017-01-27T14:20:21.161Z,1009.72
2017-01-27T14:21:34.832Z,1009.79
2017-01-27T14:22:48.478Z,1009.77
2017-01-27T14:24:02.174Z,1009.74
2017-01-27T14:25:17.327Z,1009.7
2017-01-27T14:26:31.818Z,1009.74
2017-01-27T14:27:46.605Z,1009.72
2017-01-27T14:29:00.152Z,1009.76
2017-01-27T14:30:14.260Z,1009.78
2017-01-27T14:31:28.349Z,1009.74
2017-01-27T14:32:42.111Z,1009.73
2017-01-27T14:33:55.817Z,1009.69
2017-01-27T14:35:09.845Z,1009.64
2017-01-27T14:36:24.615Z,1009.65
2017-01-27T14:37:39.126Z,1009.72
2017-01-27T14:38:53.014Z,1009.68
2017-01-27T14:40:07.403Z,1009.69
2017-01-27T14:41:20.926Z,1009.7
2017-01-27T14:42:34.604Z,1009.71
2017-01-27T14:43:48.879Z,1009.63
2017-01-27T14:45:02.459Z,1009.6
2017-01-27T14:46:16.370Z,1009.59
2017-01-27T14:47:30.008Z,1009.68
2017-01-27T14:48:43.822Z,1009.64
2017-01-27T14:49:57.808Z,1009.62
2017-01-27T14:51:13.723Z,1009.64
2017-01-27T14:52:27.831Z,1009.61
2017-01-27T14:53:41.463Z,1009.59
2017-01-27T14:54:55.173Z,1009.59
2017-01-27T14:56:09.356Z,1009.5
2017-01-27T14:57:24.277Z,1009.49
2017-01-27T14:58:38.213Z,1009.47
2017-01-27T14:59:52.991Z,1009.53
2017-01-27T15:01:07.470Z,1009.51
2017-01-27T15:02:21.862Z,1009.54
2017-01-27T15:03:36.087Z,1009.53